sensor_id;sensor_type;location;lat;lon;timestamp;P1;durP1;ratioP1;P2;durP2;ratioP2
5493;SDS011;2769;49.864;8.656;2024-02-21T00:01:07;16.73;;;6.83;;
5493;SDS011;2769;49.864;8.656;2024-02-21T00:03:35;22.57;;;6.87;;
5493;SDS011;2769;49.864;8.656;2024-02-21T00:06:03;15.97;;;6.77;;
5493;SDS011;2769;49.864;8.656;2024-02-21T00:08:31;17.33;;;6.70;;
5493;SDS011;2769;49.864;8.656;2024-02-21T00:11:02;15.90;;;6.47;;
5493;SDS011;2769;49.864;8.656;2024-02-21T00:13:30;17.03;;;6.60;;
5493;SDS011;2769;49.864;8.656;2024-02-21T00:16:00;13.37;;;7.13;;
5493;SDS011;2769;49.864;8.656;2024-02-21T00:18:28;17.30;;;6.30;;
5493;SDS011;2769;49.864;8.656;2024-02-21T00:20:56;13.13;;;7.13;;
5493;SDS011;2769;49.864;8.656;2024-02-21T00:23:24;17.67;;;7.67;;
5493;SDS011;2769;49.864;8.656;2024-02-21T00:25:55;14.63;;;7.23;;
5493;SDS011;2769;49.864;8.656;2024-02-21T00:28:24;18.33;;;7.77;;
5493;SDS011;2769;49.864;8.656;2024-02-21T00:30:52;19.50;;;7.40;;
5493;SDS011;2769;49.864;8.656;2024-02-21T00:33:21;17.47;;;7.13;;
5493;SDS011;2769;49.864;8.656;2024-02-21T00:35:49;14.63;;;6.87;;
5493;SDS011;2769;49.864;8.656;2024-02-21T00:38:17;19.03;;;7.40;;
5493;SDS011;2769;49.864;8.656;2024-02-21T00:40:45;14.43;;;6.70;;
5493;SDS011;2769;49.864;8.656;2024-02-21T00:43:13;13.03;;;6.50;;
5493;SDS011;2769;49.864;8.656;2024-02-21T00:45:43;15.77;;;7.67;;
5493;SDS011;2769;49.864;8.656;2024-02-21T00:48:11;23.50;;;6.77;;
5493;SDS011;2769;49.864;8.656;2024-02-21T00:50:39;14.30;;;6.93;;
5493;SDS011;2769;49.864;8.656;2024-02-21T00:53:07;19.00;;;7.90;;
5493;SDS011;2769;49.864;8.656;2024-02-21T00:55:36;13.77;;;6.93;;
5493;SDS011;2769;49.864;8.656;2024-02-21T00:58:05;16.40;;;7.50;;
5493;SDS011;2769;49.864;8.656;2024-02-21T01:00:33;33.20;;;8.33;;
5493;SDS011;2769;49.864;8.656;2024-02-21T01:03:03;15.90;;;7.00;;
5493;SDS011;2769;49.864;8.656;2024-02-21T01:05:31;12.13;;;6.60;;
5493;SDS011;2769;49.864;8.656;2024-02-21T01:07:59;19.90;;;7.60;;
5493;SDS011;2769;49.864;8.656;2024-02-21T01:10:27;20.43;;;7.10;;
5493;SDS011;2769;49.864;8.656;2024-02-21T01:12:55;17.83;;;7.70;;
5493;SDS011;2769;49.864;8.656;2024-02-21T01:15:23;15.93;;;7.93;;
5493;SDS011;2769;49.864;8.656;2024-02-21T01:17:51;15.63;;;8.30;;
5493;SDS011;2769;49.864;8.656;2024-02-21T01:20:22;14.53;;;6.90;;
5493;SDS011;2769;49.864;8.656;2024-02-21T01:22:50;19.23;;;7.90;;
5493;SDS011;2769;49.864;8.656;2024-02-21T01:25:18;21.03;;;9.13;;
5493;SDS011;2769;49.864;8.656;2024-02-21T01:27:46;17.90;;;7.37;;
5493;SDS011;2769;49.864;8.656;2024-02-21T01:30:14;16.20;;;7.30;;
5493;SDS011;2769;49.864;8.656;2024-02-21T01:32:42;14.60;;;6.93;;
5493;SDS011;2769;49.864;8.656;2024-02-21T01:35:14;18.57;;;7.20;;
5493;SDS011;2769;49.864;8.656;2024-02-21T01:37:43;11.60;;;6.80;;
5493;SDS011;2769;49.864;8.656;2024-02-21T01:40:12;13.73;;;6.87;;
5493;SDS011;2769;49.864;8.656;2024-02-21T01:42:40;14.00;;;7.40;;
5493;SDS011;2769;49.864;8.656;2024-02-21T01:45:08;15.53;;;7.33;;
5493;SDS011;2769;49.864;8.656;2024-02-21T01:47:36;13.90;;;7.10;;
5493;SDS011;2769;49.864;8.656;2024-02-21T01:50:05;17.73;;;7.30;;
5493;SDS011;2769;49.864;8.656;2024-02-21T01:52:33;17.03;;;7.00;;
5493;SDS011;2769;49.864;8.656;2024-02-21T01:55:04;20.30;;;6.93;;
5493;SDS011;2769;49.864;8.656;2024-02-21T01:57:33;21.63;;;8.00;;
5493;SDS011;2769;49.864;8.656;2024-02-21T02:00:02;13.60;;;6.90;;
5493;SDS011;2769;49.864;8.656;2024-02-21T02:02:36;20.30;;;8.00;;
5493;SDS011;2769;49.864;8.656;2024-02-21T02:05:05;15.63;;;8.03;;
5493;SDS011;2769;49.864;8.656;2024-02-21T02:07:34;18.73;;;8.07;;
5493;SDS011;2769;49.864;8.656;2024-02-21T02:10:04;14.37;;;7.20;;
5493;SDS011;2769;49.864;8.656;2024-02-21T02:12:33;18.33;;;7.10;;
5493;SDS011;2769;49.864;8.656;2024-02-21T02:15:01;16.07;;;7.20;;
5493;SDS011;2769;49.864;8.656;2024-02-21T02:17:31;21.13;;;7.80;;
5493;SDS011;2769;49.864;8.656;2024-02-21T02:19:59;23.80;;;7.30;;
5493;SDS011;2769;49.864;8.656;2024-02-21T02:22:28;14.07;;;7.17;;
5493;SDS011;2769;49.864;8.656;2024-02-21T02:24:57;15.87;;;7.40;;
5493;SDS011;2769;49.864;8.656;2024-02-21T02:27:25;21.00;;;6.80;;
5493;SDS011;2769;49.864;8.656;2024-02-21T02:29:54;16.93;;;7.23;;
5493;SDS011;2769;49.864;8.656;2024-02-21T02:32:22;17.40;;;7.17;;
5493;SDS011;2769;49.864;8.656;2024-02-21T02:34:50;17.40;;;6.27;;
5493;SDS011;2769;49.864;8.656;2024-02-21T02:37:18;16.33;;;6.17;;
5493;SDS011;2769;49.864;8.656;2024-02-21T02:39:46;15.53;;;7.20;;
5493;SDS011;2769;49.864;8.656;2024-02-21T02:42:17;15.93;;;7.07;;
5493;SDS011;2769;49.864;8.656;2024-02-21T02:44:45;18.30;;;6.23;;
5493;SDS011;2769;49.864;8.656;2024-02-21T02:47:13;29.67;;;8.60;;
5493;SDS011;2769;49.864;8.656;2024-02-21T02:49:41;17.87;;;7.10;;
5493;SDS011;2769;49.864;8.656;2024-02-21T02:52:10;12.57;;;7.20;;
5493;SDS011;2769;49.864;8.656;2024-02-21T02:54:38;19.77;;;7.90;;
5493;SDS011;2769;49.864;8.656;2024-02-21T02:57:06;19.80;;;6.90;;
5493;SDS011;2769;49.864;8.656;2024-02-21T02:59:36;22.10;;;8.10;;
5493;SDS011;2769;49.864;8.656;2024-02-21T03:02:03;16.80;;;7.70;;
5493;SDS011;2769;49.864;8.656;2024-02-21T03:04:31;17.27;;;7.10;;
5493;SDS011;2769;49.864;8.656;2024-02-21T03:07:00;22.63;;;7.53;;
5493;SDS011;2769;49.864;8.656;2024-02-21T03:09:28;21.63;;;8.10;;
5493;SDS011;2769;49.864;8.656;2024-02-21T03:11:56;17.17;;;7.07;;
5493;SDS011;2769;49.864;8.656;2024-02-21T03:14:29;12.10;;;6.30;;
5493;SDS011;2769;49.864;8.656;2024-02-21T03:16:59;28.73;;;6.50;;
5493;SDS011;2769;49.864;8.656;2024-02-21T03:19:27;14.27;;;7.00;;
5493;SDS011;2769;49.864;8.656;2024-02-21T03:21:55;15.63;;;6.00;;
5493;SDS011;2769;49.864;8.656;2024-02-21T03:24:23;12.00;;;7.23;;
5493;SDS011;2769;49.864;8.656;2024-02-21T03:26:51;18.13;;;6.67;;
5493;SDS011;2769;49.864;8.656;2024-02-21T03:29:19;16.40;;;6.30;;
5493;SDS011;2769;49.864;8.656;2024-02-21T03:31:47;20.33;;;6.90;;
5493;SDS011;2769;49.864;8.656;2024-02-21T03:34:16;19.40;;;6.70;;
5493;SDS011;2769;49.864;8.656;2024-02-21T03:36:45;16.23;;;7.13;;
5493;SDS011;2769;49.864;8.656;2024-02-21T03:39:13;17.40;;;7.20;;
5493;SDS011;2769;49.864;8.656;2024-02-21T03:41:41;13.30;;;7.73;;
5493;SDS011;2769;49.864;8.656;2024-02-21T03:44:10;15.47;;;7.30;;
5493;SDS011;2769;49.864;8.656;2024-02-21T03:46:37;14.87;;;6.70;;
5493;SDS011;2769;49.864;8.656;2024-02-21T03:49:05;17.83;;;6.90;;
5493;SDS011;2769;49.864;8.656;2024-02-21T03:51:35;14.97;;;7.00;;
5493;SDS011;2769;49.864;8.656;2024-02-21T03:54:03;15.87;;;7.37;;
5493;SDS011;2769;49.864;8.656;2024-02-21T03:56:31;18.60;;;6.60;;
5493;SDS011;2769;49.864;8.656;2024-02-21T03:58:59;15.23;;;6.70;;
5493;SDS011;2769;49.864;8.656;2024-02-21T04:01:27;19.00;;;6.97;;
5493;SDS011;2769;49.864;8.656;2024-02-21T04:03:55;18.30;;;7.10;;
5493;SDS011;2769;49.864;8.656;2024-02-21T04:06:23;15.47;;;6.80;;
5493;SDS011;2769;49.864;8.656;2024-02-21T04:08:52;10.73;;;5.93;;
5493;SDS011;2769;49.864;8.656;2024-02-21T04:11:20;17.17;;;6.60;;
5493;SDS011;2769;49.864;8.656;2024-02-21T04:13:49;16.83;;;6.70;;
5493;SDS011;2769;49.864;8.656;2024-02-21T04:16:17;22.10;;;7.40;;
5493;SDS011;2769;49.864;8.656;2024-02-21T04:18:45;15.97;;;6.93;;
5493;SDS011;2769;49.864;8.656;2024-02-21T04:21:14;17.37;;;6.00;;
5493;SDS011;2769;49.864;8.656;2024-02-21T04:23:42;13.93;;;7.10;;
5493;SDS011;2769;49.864;8.656;2024-02-21T04:26:11;12.13;;;6.23;;
5493;SDS011;2769;49.864;8.656;2024-02-21T04:28:39;17.50;;;6.73;;
5493;SDS011;2769;49.864;8.656;2024-02-21T04:31:07;14.47;;;6.80;;
5493;SDS011;2769;49.864;8.656;2024-02-21T04:33:35;20.43;;;6.50;;
5493;SDS011;2769;49.864;8.656;2024-02-21T04:36:04;13.37;;;5.87;;
5493;SDS011;2769;49.864;8.656;2024-02-21T04:38:32;19.37;;;6.50;;
5493;SDS011;2769;49.864;8.656;2024-02-21T04:41:03;15.13;;;6.57;;
5493;SDS011;2769;49.864;8.656;2024-02-21T04:43:32;14.50;;;7.00;;
5493;SDS011;2769;49.864;8.656;2024-02-21T04:46:00;11.30;;;6.40;;
5493;SDS011;2769;49.864;8.656;2024-02-21T04:48:28;19.70;;;6.97;;
5493;SDS011;2769;49.864;8.656;2024-02-21T04:50:56;17.03;;;7.67;;
5493;SDS011;2769;49.864;8.656;2024-02-21T04:53:24;13.50;;;6.50;;
5493;SDS011;2769;49.864;8.656;2024-02-21T04:55:52;14.43;;;7.00;;
5493;SDS011;2769;49.864;8.656;2024-02-21T04:58:20;14.10;;;7.20;;
5493;SDS011;2769;49.864;8.656;2024-02-21T05:00:50;15.03;;;6.73;;
5493;SDS011;2769;49.864;8.656;2024-02-21T05:03:20;14.07;;;6.57;;
5493;SDS011;2769;49.864;8.656;2024-02-21T05:05:48;17.40;;;7.33;;
5493;SDS011;2769;49.864;8.656;2024-02-21T05:08:16;14.80;;;5.90;;
5493;SDS011;2769;49.864;8.656;2024-02-21T05:10:44;19.77;;;7.00;;
5493;SDS011;2769;49.864;8.656;2024-02-21T05:13:12;20.13;;;7.70;;
5493;SDS011;2769;49.864;8.656;2024-02-21T05:15:43;12.43;;;6.50;;
5493;SDS011;2769;49.864;8.656;2024-02-21T05:18:12;15.60;;;6.03;;
5493;SDS011;2769;49.864;8.656;2024-02-21T05:20:40;16.23;;;7.30;;
5493;SDS011;2769;49.864;8.656;2024-02-21T05:23:09;16.03;;;8.67;;
5493;SDS011;2769;49.864;8.656;2024-02-21T05:25:37;17.70;;;7.20;;
5493;SDS011;2769;49.864;8.656;2024-02-21T05:28:05;17.87;;;6.50;;
5493;SDS011;2769;49.864;8.656;2024-02-21T05:30:33;14.23;;;6.10;;
5493;SDS011;2769;49.864;8.656;2024-02-21T05:33:03;14.30;;;6.93;;
5493;SDS011;2769;49.864;8.656;2024-02-21T05:35:34;26.97;;;6.77;;
5493;SDS011;2769;49.864;8.656;2024-02-21T05:38:02;14.33;;;6.40;;
5493;SDS011;2769;49.864;8.656;2024-02-21T05:40:33;20.33;;;6.10;;
5493;SDS011;2769;49.864;8.656;2024-02-21T05:43:01;14.47;;;6.73;;
5493;SDS011;2769;49.864;8.656;2024-02-21T05:45:29;11.17;;;5.80;;
5493;SDS011;2769;49.864;8.656;2024-02-21T05:47:57;13.03;;;5.47;;
5493;SDS011;2769;49.864;8.656;2024-02-21T05:50:25;18.20;;;6.10;;
5493;SDS011;2769;49.864;8.656;2024-02-21T05:52:56;12.20;;;5.70;;
5493;SDS011;2769;49.864;8.656;2024-02-21T05:55:24;20.30;;;6.40;;
5493;SDS011;2769;49.864;8.656;2024-02-21T05:57:53;15.80;;;6.10;;
5493;SDS011;2769;49.864;8.656;2024-02-21T06:00:21;18.77;;;6.37;;
5493;SDS011;2769;49.864;8.656;2024-02-21T06:02:49;12.77;;;6.27;;
5493;SDS011;2769;49.864;8.656;2024-02-21T06:05:17;17.00;;;6.50;;
5493;SDS011;2769;49.864;8.656;2024-02-21T06:07:45;11.00;;;5.80;;
5493;SDS011;2769;49.864;8.656;2024-02-21T06:10:15;8.70;;;5.40;;
5493;SDS011;2769;49.864;8.656;2024-02-21T06:12:43;18.07;;;6.40;;
5493;SDS011;2769;49.864;8.656;2024-02-21T06:15:11;15.73;;;5.70;;
5493;SDS011;2769;49.864;8.656;2024-02-21T06:17:39;9.07;;;5.60;;
5493;SDS011;2769;49.864;8.656;2024-02-21T06:20:07;16.03;;;5.53;;
5493;SDS011;2769;49.864;8.656;2024-02-21T06:22:36;13.17;;;5.93;;
5493;SDS011;2769;49.864;8.656;2024-02-21T06:25:04;11.43;;;5.77;;
5493;SDS011;2769;49.864;8.656;2024-02-21T06:27:34;12.90;;;5.60;;
5493;SDS011;2769;49.864;8.656;2024-02-21T06:30:02;11.93;;;5.77;;
5493;SDS011;2769;49.864;8.656;2024-02-21T06:32:30;16.10;;;6.83;;
5493;SDS011;2769;49.864;8.656;2024-02-21T06:34:58;14.50;;;6.27;;
5493;SDS011;2769;49.864;8.656;2024-02-21T06:37:28;11.37;;;5.60;;
5493;SDS011;2769;49.864;8.656;2024-02-21T06:39:56;24.57;;;6.47;;
5493;SDS011;2769;49.864;8.656;2024-02-21T06:42:24;18.30;;;6.17;;
5493;SDS011;2769;49.864;8.656;2024-02-21T06:44:54;10.13;;;5.37;;
5493;SDS011;2769;49.864;8.656;2024-02-21T06:47:22;14.13;;;6.60;;
5493;SDS011;2769;49.864;8.656;2024-02-21T06:49:51;13.10;;;6.53;;
5493;SDS011;2769;49.864;8.656;2024-02-21T06:52:19;22.83;;;7.00;;
5493;SDS011;2769;49.864;8.656;2024-02-21T06:54:47;13.33;;;6.17;;
5493;SDS011;2769;49.864;8.656;2024-02-21T06:57:15;14.63;;;6.10;;
5493;SDS011;2769;49.864;8.656;2024-02-21T06:59:43;19.37;;;6.43;;
5493;SDS011;2769;49.864;8.656;2024-02-21T07:02:13;14.30;;;9.60;;
5493;SDS011;2769;49.864;8.656;2024-02-21T07:04:40;8.23;;;5.87;;
5493;SDS011;2769;49.864;8.656;2024-02-21T07:07:10;18.70;;;7.17;;
5493;SDS011;2769;49.864;8.656;2024-02-21T07:09:39;21.60;;;6.23;;
5493;SDS011;2769;49.864;8.656;2024-02-21T07:12:07;23.67;;;6.13;;
5493;SDS011;2769;49.864;8.656;2024-02-21T07:14:35;16.57;;;6.03;;
5493;SDS011;2769;49.864;8.656;2024-02-21T07:17:04;17.83;;;6.30;;
5493;SDS011;2769;49.864;8.656;2024-02-21T07:19:33;18.73;;;8.57;;
5493;SDS011;2769;49.864;8.656;2024-02-21T07:22:02;19.73;;;5.70;;
5493;SDS011;2769;49.864;8.656;2024-02-21T07:24:31;16.57;;;6.53;;
5493;SDS011;2769;49.864;8.656;2024-02-21T07:26:59;19.80;;;6.60;;
5493;SDS011;2769;49.864;8.656;2024-02-21T07:29:31;16.93;;;5.90;;
5493;SDS011;2769;49.864;8.656;2024-02-21T07:31:59;17.03;;;6.20;;
5493;SDS011;2769;49.864;8.656;2024-02-21T07:34:27;13.90;;;5.80;;
5493;SDS011;2769;49.864;8.656;2024-02-21T07:36:56;18.00;;;6.60;;
5493;SDS011;2769;49.864;8.656;2024-02-21T07:39:24;15.67;;;6.77;;
5493;SDS011;2769;49.864;8.656;2024-02-21T07:41:52;21.93;;;6.30;;
5493;SDS011;2769;49.864;8.656;2024-02-21T07:44:21;15.77;;;6.60;;
5493;SDS011;2769;49.864;8.656;2024-02-21T07:46:48;10.50;;;5.37;;
5493;SDS011;2769;49.864;8.656;2024-02-21T07:49:16;11.80;;;6.10;;
5493;SDS011;2769;49.864;8.656;2024-02-21T07:51:44;13.17;;;6.03;;
5493;SDS011;2769;49.864;8.656;2024-02-21T07:54:16;11.20;;;6.10;;
5493;SDS011;2769;49.864;8.656;2024-02-21T07:56:46;14.20;;;5.90;;
5493;SDS011;2769;49.864;8.656;2024-02-21T07:59:14;13.27;;;6.10;;
5493;SDS011;2769;49.864;8.656;2024-02-21T08:01:42;12.23;;;5.40;;
5493;SDS011;2769;49.864;8.656;2024-02-21T08:04:11;21.37;;;6.30;;
5493;SDS011;2769;49.864;8.656;2024-02-21T08:06:39;14.87;;;5.87;;
5493;SDS011;2769;49.864;8.656;2024-02-21T08:09:08;13.20;;;6.00;;
5493;SDS011;2769;49.864;8.656;2024-02-21T08:11:37;17.70;;;6.20;;
5493;SDS011;2769;49.864;8.656;2024-02-21T08:14:05;14.43;;;4.37;;
5493;SDS011;2769;49.864;8.656;2024-02-21T08:16:35;13.80;;;5.60;;
5493;SDS011;2769;49.864;8.656;2024-02-21T08:19:03;13.73;;;5.53;;
5493;SDS011;2769;49.864;8.656;2024-02-21T08:21:34;10.20;;;5.30;;
5493;SDS011;2769;49.864;8.656;2024-02-21T08:24:03;13.27;;;5.37;;
5493;SDS011;2769;49.864;8.656;2024-02-21T08:26:31;11.17;;;5.67;;
5493;SDS011;2769;49.864;8.656;2024-02-21T08:29:00;17.03;;;5.37;;
5493;SDS011;2769;49.864;8.656;2024-02-21T08:31:28;10.83;;;5.37;;
5493;SDS011;2769;49.864;8.656;2024-02-21T08:34:00;15.40;;;5.60;;
5493;SDS011;2769;49.864;8.656;2024-02-21T08:36:30;10.03;;;4.33;;
5493;SDS011;2769;49.864;8.656;2024-02-21T08:38:59;19.70;;;5.50;;
5493;SDS011;2769;49.864;8.656;2024-02-21T08:41:27;7.87;;;4.70;;
5493;SDS011;2769;49.864;8.656;2024-02-21T08:44:16;7.40;;;4.90;;
5493;SDS011;2769;49.864;8.656;2024-02-21T08:46:44;12.70;;;4.60;;
5493;SDS011;2769;49.864;8.656;2024-02-21T08:49:13;12.07;;;4.33;;
5493;SDS011;2769;49.864;8.656;2024-02-21T08:51:42;14.60;;;5.00;;
5493;SDS011;2769;49.864;8.656;2024-02-21T08:54:10;10.37;;;4.80;;
5493;SDS011;2769;49.864;8.656;2024-02-21T08:56:38;7.03;;;4.37;;
5493;SDS011;2769;49.864;8.656;2024-02-21T08:59:06;8.60;;;4.10;;
5493;SDS011;2769;49.864;8.656;2024-02-21T09:01:36;14.90;;;4.60;;
5493;SDS011;2769;49.864;8.656;2024-02-21T09:04:04;10.93;;;4.40;;
5493;SDS011;2769;49.864;8.656;2024-02-21T09:06:32;13.47;;;5.17;;
5493;SDS011;2769;49.864;8.656;2024-02-21T09:09:03;8.93;;;4.50;;
5493;SDS011;2769;49.864;8.656;2024-02-21T09:11:31;16.03;;;5.50;;
5493;SDS011;2769;49.864;8.656;2024-02-21T09:14:00;13.90;;;5.07;;
5493;SDS011;2769;49.864;8.656;2024-02-21T09:16:31;13.47;;;4.87;;
5493;SDS011;2769;49.864;8.656;2024-02-21T09:19:01;9.63;;;4.97;;
5493;SDS011;2769;49.864;8.656;2024-02-21T09:21:29;7.30;;;4.63;;
5493;SDS011;2769;49.864;8.656;2024-02-21T09:23:57;13.17;;;4.80;;
5493;SDS011;2769;49.864;8.656;2024-02-21T09:26:26;9.83;;;5.10;;
5493;SDS011;2769;49.864;8.656;2024-02-21T09:28:54;9.73;;;4.97;;
5493;SDS011;2769;49.864;8.656;2024-02-21T09:31:23;8.97;;;4.90;;
5493;SDS011;2769;49.864;8.656;2024-02-21T09:33:51;14.17;;;5.10;;
5493;SDS011;2769;49.864;8.656;2024-02-21T09:36:20;11.83;;;4.63;;
5493;SDS011;2769;49.864;8.656;2024-02-21T09:38:48;14.43;;;5.50;;
5493;SDS011;2769;49.864;8.656;2024-02-21T09:41:17;11.20;;;5.40;;
5493;SDS011;2769;49.864;8.656;2024-02-21T09:43:51;15.97;;;4.70;;
5493;SDS011;2769;49.864;8.656;2024-02-21T09:46:24;8.70;;;4.93;;
5493;SDS011;2769;49.864;8.656;2024-02-21T09:48:58;12.80;;;5.77;;
5493;SDS011;2769;49.864;8.656;2024-02-21T09:51:34;12.93;;;5.10;;
5493;SDS011;2769;49.864;8.656;2024-02-21T09:54:02;13.30;;;3.80;;
5493;SDS011;2769;49.864;8.656;2024-02-21T09:56:42;10.57;;;4.53;;
5493;SDS011;2769;49.864;8.656;2024-02-21T09:59:13;13.83;;;5.80;;
5493;SDS011;2769;49.864;8.656;2024-02-21T10:01:42;9.90;;;4.90;;
5493;SDS011;2769;49.864;8.656;2024-02-21T10:04:10;10.63;;;5.10;;
5493;SDS011;2769;49.864;8.656;2024-02-21T10:06:40;10.13;;;5.07;;
5493;SDS011;2769;49.864;8.656;2024-02-21T10:09:08;9.53;;;4.60;;
5493;SDS011;2769;49.864;8.656;2024-02-21T10:11:36;8.63;;;5.00;;
5493;SDS011;2769;49.864;8.656;2024-02-21T10:14:04;14.53;;;4.53;;
5493;SDS011;2769;49.864;8.656;2024-02-21T10:16:33;14.53;;;4.40;;
5493;SDS011;2769;49.864;8.656;2024-02-21T10:19:01;11.43;;;4.87;;
5493;SDS011;2769;49.864;8.656;2024-02-21T10:21:30;10.10;;;4.30;;
5493;SDS011;2769;49.864;8.656;2024-02-21T10:23:59;8.37;;;4.40;;
5493;SDS011;2769;49.864;8.656;2024-02-21T10:26:30;11.50;;;4.67;;
5493;SDS011;2769;49.864;8.656;2024-02-21T10:28:59;8.60;;;4.50;;
5493;SDS011;2769;49.864;8.656;2024-02-21T10:31:29;12.67;;;4.50;;
5493;SDS011;2769;49.864;8.656;2024-02-21T10:33:57;11.83;;;5.70;;
5493;SDS011;2769;49.864;8.656;2024-02-21T10:36:26;11.20;;;4.97;;
5493;SDS011;2769;49.864;8.656;2024-02-21T10:38:54;10.10;;;4.40;;
5493;SDS011;2769;49.864;8.656;2024-02-21T10:41:24;7.40;;;4.73;;
5493;SDS011;2769;49.864;8.656;2024-02-21T10:43:54;12.00;;;4.70;;
5493;SDS011;2769;49.864;8.656;2024-02-21T10:46:23;12.60;;;4.97;;
5493;SDS011;2769;49.864;8.656;2024-02-21T10:48:55;9.83;;;5.00;;
5493;SDS011;2769;49.864;8.656;2024-02-21T10:51:30;9.47;;;4.63;;
5493;SDS011;2769;49.864;8.656;2024-02-21T10:54:04;12.10;;;4.70;;
5493;SDS011;2769;49.864;8.656;2024-02-21T10:56:39;12.30;;;4.60;;
5493;SDS011;2769;49.864;8.656;2024-02-21T10:59:08;17.70;;;5.73;;
5493;SDS011;2769;49.864;8.656;2024-02-21T11:01:36;11.93;;;5.20;;
5493;SDS011;2769;49.864;8.656;2024-02-21T11:04:06;14.13;;;5.13;;
5493;SDS011;2769;49.864;8.656;2024-02-21T11:06:36;10.67;;;4.80;;
5493;SDS011;2769;49.864;8.656;2024-02-21T11:09:07;10.27;;;4.97;;
5493;SDS011;2769;49.864;8.656;2024-02-21T11:11:40;11.80;;;5.30;;
5493;SDS011;2769;49.864;8.656;2024-02-21T11:14:09;16.03;;;6.07;;
5493;SDS011;2769;49.864;8.656;2024-02-21T11:16:38;11.00;;;4.27;;
5493;SDS011;2769;49.864;8.656;2024-02-21T11:19:07;11.83;;;4.10;;
5493;SDS011;2769;49.864;8.656;2024-02-21T11:21:36;7.57;;;4.40;;
5493;SDS011;2769;49.864;8.656;2024-02-21T11:24:05;17.87;;;4.80;;
5493;SDS011;2769;49.864;8.656;2024-02-21T11:26:36;6.57;;;4.30;;
5493;SDS011;2769;49.864;8.656;2024-02-21T11:29:06;10.73;;;4.30;;
5493;SDS011;2769;49.864;8.656;2024-02-21T11:31:39;12.60;;;5.00;;
5493;SDS011;2769;49.864;8.656;2024-02-21T11:34:09;10.53;;;4.73;;
5493;SDS011;2769;49.864;8.656;2024-02-21T11:36:46;8.73;;;4.63;;
5493;SDS011;2769;49.864;8.656;2024-02-21T11:39:19;9.23;;;4.53;;
5493;SDS011;2769;49.864;8.656;2024-02-21T11:41:59;12.57;;;4.73;;
5493;SDS011;2769;49.864;8.656;2024-02-21T11:44:32;10.10;;;4.50;;
5493;SDS011;2769;49.864;8.656;2024-02-21T11:47:01;10.07;;;4.27;;
5493;SDS011;2769;49.864;8.656;2024-02-21T11:49:31;15.20;;;4.03;;
5493;SDS011;2769;49.864;8.656;2024-02-21T11:51:59;10.20;;;3.80;;
5493;SDS011;2769;49.864;8.656;2024-02-21T11:54:30;10.40;;;4.17;;
5493;SDS011;2769;49.864;8.656;2024-02-21T11:56:58;12.83;;;4.60;;
5493;SDS011;2769;49.864;8.656;2024-02-21T11:59:29;7.17;;;3.83;;
5493;SDS011;2769;49.864;8.656;2024-02-21T12:01:59;10.20;;;4.17;;
5493;SDS011;2769;49.864;8.656;2024-02-21T12:04:29;13.67;;;4.80;;
5493;SDS011;2769;49.864;8.656;2024-02-21T12:06:58;7.50;;;4.13;;
5493;SDS011;2769;49.864;8.656;2024-02-21T12:09:27;12.10;;;5.03;;
5493;SDS011;2769;49.864;8.656;2024-02-21T12:11:58;19.00;;;5.27;;
5493;SDS011;2769;49.864;8.656;2024-02-21T12:14:27;11.73;;;4.20;;
5493;SDS011;2769;49.864;8.656;2024-02-21T12:16:55;11.50;;;4.00;;
5493;SDS011;2769;49.864;8.656;2024-02-21T12:19:25;11.87;;;4.27;;
5493;SDS011;2769;49.864;8.656;2024-02-21T12:21:53;13.40;;;4.53;;
5493;SDS011;2769;49.864;8.656;2024-02-21T12:24:24;9.57;;;3.90;;
5493;SDS011;2769;49.864;8.656;2024-02-21T12:26:53;10.80;;;4.17;;
5493;SDS011;2769;49.864;8.656;2024-02-21T12:29:22;12.30;;;4.90;;
5493;SDS011;2769;49.864;8.656;2024-02-21T12:31:51;10.53;;;4.80;;
5493;SDS011;2769;49.864;8.656;2024-02-21T12:34:20;9.50;;;3.77;;
5493;SDS011;2769;49.864;8.656;2024-02-21T12:37:05;9.43;;;3.37;;
5493;SDS011;2769;49.864;8.656;2024-02-21T12:39:33;6.43;;;3.33;;
5493;SDS011;2769;49.864;8.656;2024-02-21T12:42:01;6.07;;;3.07;;
5493;SDS011;2769;49.864;8.656;2024-02-21T12:44:30;7.43;;;3.20;;
5493;SDS011;2769;49.864;8.656;2024-02-21T12:46:59;7.20;;;2.80;;
5493;SDS011;2769;49.864;8.656;2024-02-21T12:49:27;8.70;;;3.50;;
5493;SDS011;2769;49.864;8.656;2024-02-21T12:51:56;8.57;;;2.80;;
5493;SDS011;2769;49.864;8.656;2024-02-21T12:54:26;8.50;;;3.20;;
5493;SDS011;2769;49.864;8.656;2024-02-21T12:56:54;10.33;;;4.73;;
5493;SDS011;2769;49.864;8.656;2024-02-21T12:59:22;7.07;;;3.33;;
5493;SDS011;2769;49.864;8.656;2024-02-21T13:01:50;9.70;;;2.90;;
5493;SDS011;2769;49.864;8.656;2024-02-21T13:04:19;5.73;;;2.80;;
5493;SDS011;2769;49.864;8.656;2024-02-21T13:06:48;4.57;;;2.73;;
5493;SDS011;2769;49.864;8.656;2024-02-21T13:09:16;7.00;;;3.00;;
5493;SDS011;2769;49.864;8.656;2024-02-21T13:11:45;8.40;;;3.17;;
5493;SDS011;2769;49.864;8.656;2024-02-21T13:14:13;8.93;;;3.03;;
5493;SDS011;2769;49.864;8.656;2024-02-21T13:16:41;6.63;;;3.00;;
5493;SDS011;2769;49.864;8.656;2024-02-21T13:19:09;6.20;;;2.93;;
5493;SDS011;2769;49.864;8.656;2024-02-21T13:21:37;8.50;;;4.07;;
5493;SDS011;2769;49.864;8.656;2024-02-21T13:24:05;11.70;;;3.20;;
5493;SDS011;2769;49.864;8.656;2024-02-21T13:26:33;5.73;;;3.07;;
5493;SDS011;2769;49.864;8.656;2024-02-21T13:29:03;14.00;;;4.30;;
5493;SDS011;2769;49.864;8.656;2024-02-21T13:31:31;6.60;;;2.83;;
5493;SDS011;2769;49.864;8.656;2024-02-21T13:33:59;12.40;;;3.57;;
5493;SDS011;2769;49.864;8.656;2024-02-21T13:36:27;3.37;;;2.73;;
5493;SDS011;2769;49.864;8.656;2024-02-21T13:38:55;7.53;;;3.00;;
5493;SDS011;2769;49.864;8.656;2024-02-21T13:41:44;9.13;;;2.90;;
5493;SDS011;2769;49.864;8.656;2024-02-21T13:44:34;8.63;;;3.20;;
5493;SDS011;2769;49.864;8.656;2024-02-21T13:47:23;7.47;;;3.40;;
5493;SDS011;2769;49.864;8.656;2024-02-21T13:50:11;9.70;;;3.53;;
5493;SDS011;2769;49.864;8.656;2024-02-21T13:53:01;10.47;;;3.20;;
5493;SDS011;2769;49.864;8.656;2024-02-21T13:55:49;11.33;;;3.30;;
5493;SDS011;2769;49.864;8.656;2024-02-21T13:58:38;7.03;;;3.40;;
5493;SDS011;2769;49.864;8.656;2024-02-21T14:01:27;4.17;;;2.67;;
5493;SDS011;2769;49.864;8.656;2024-02-21T14:04:16;7.73;;;2.93;;
5493;SDS011;2769;49.864;8.656;2024-02-21T14:07:05;6.17;;;3.10;;
5493;SDS011;2769;49.864;8.656;2024-02-21T14:09:54;4.17;;;2.60;;
5493;SDS011;2769;49.864;8.656;2024-02-21T14:12:42;14.97;;;2.57;;
5493;SDS011;2769;49.864;8.656;2024-02-21T14:15:31;9.77;;;2.77;;
5493;SDS011;2769;49.864;8.656;2024-02-21T14:18:20;11.47;;;3.20;;
5493;SDS011;2769;49.864;8.656;2024-02-21T14:21:09;9.50;;;3.33;;
5493;SDS011;2769;49.864;8.656;2024-02-21T14:23:58;8.13;;;3.17;;
5493;SDS011;2769;49.864;8.656;2024-02-21T14:26:49;10.83;;;3.13;;
5493;SDS011;2769;49.864;8.656;2024-02-21T14:29:37;7.60;;;2.73;;
5493;SDS011;2769;49.864;8.656;2024-02-21T14:32:26;6.87;;;2.93;;
5493;SDS011;2769;49.864;8.656;2024-02-21T14:35:15;9.03;;;2.90;;
5493;SDS011;2769;49.864;8.656;2024-02-21T14:38:04;8.20;;;2.90;;
5493;SDS011;2769;49.864;8.656;2024-02-21T14:40:53;10.90;;;2.53;;
5493;SDS011;2769;49.864;8.656;2024-02-21T14:43:41;6.70;;;3.17;;
5493;SDS011;2769;49.864;8.656;2024-02-21T14:46:30;9.47;;;3.40;;
5493;SDS011;2769;49.864;8.656;2024-02-21T14:49:19;4.47;;;2.63;;
5493;SDS011;2769;49.864;8.656;2024-02-21T14:52:09;6.50;;;2.80;;
5493;SDS011;2769;49.864;8.656;2024-02-21T14:54:57;9.53;;;3.07;;
5493;SDS011;2769;49.864;8.656;2024-02-21T14:57:46;6.00;;;2.90;;
5493;SDS011;2769;49.864;8.656;2024-02-21T15:00:34;10.20;;;3.20;;
5493;SDS011;2769;49.864;8.656;2024-02-21T15:03:22;7.40;;;2.73;;
5493;SDS011;2769;49.864;8.656;2024-02-21T15:06:14;6.20;;;3.03;;
5493;SDS011;2769;49.864;8.656;2024-02-21T15:09:04;5.07;;;2.63;;
5493;SDS011;2769;49.864;8.656;2024-02-21T15:11:54;7.70;;;3.03;;
5493;SDS011;2769;49.864;8.656;2024-02-21T15:14:43;6.63;;;2.53;;
5493;SDS011;2769;49.864;8.656;2024-02-21T15:17:31;20.67;;;4.17;;
5493;SDS011;2769;49.864;8.656;2024-02-21T15:20:20;17.67;;;4.07;;
5493;SDS011;2769;49.864;8.656;2024-02-21T15:23:08;8.77;;;2.70;;
5493;SDS011;2769;49.864;8.656;2024-02-21T15:25:58;6.43;;;2.47;;
5493;SDS011;2769;49.864;8.656;2024-02-21T15:28:47;6.20;;;2.80;;